Time;durP1;ratioP1;P1;durP2;ratioP2;P2;SDS_P1;SDS_P2;PMS_P1;PMS_P2;Temp;Humidity;BMP_temperature;BMP_pressure;BME280_temperature;BME280_humidity;BME280_pressure;Samples;Min_cycle;Max_cycle;Signal;HPM_P1;HPM_P2
2023/08/06 00:01:29;;;;;;;6.88;3.22;;;;;;;21.26;98.30;94093.06;4941433;29;20236;-75
2023/08/06 00:03:54;;;;;;;6.70;3.30;;;;;;;20.68;100.00;94076.41;4949069;28;20307;-73
2023/08/06 00:06:20;;;;;;;5.72;3.17;;;;;;;20.87;100.00;94070.38;4930391;29;20858;-73
2023/08/06 00:08:45;;;;;;;8.10;3.67;;;;;;;21.02;100.00;94104.75;4928325;28;20232;-74
2023/08/06 00:11:12;;;;;;;7.70;3.30;;;;;;;20.78;100.00;94088.81;4932001;29;20241;-73
2023/08/06 00:13:38;;;;;;;7.78;3.42;;;;;;;21.12;100.00;94097.50;4939846;28;20237;-74
2023/08/06 00:16:13;;;;;;;7.70;3.20;;;;;;;21.22;99.31;94108.03;4980092;28;20774;-72
2023/08/06 00:18:38;;;;;;;5.93;3.40;;;;;;;20.72;100.00;94092.59;4940544;28;20289;-73
2023/08/06 00:21:03;;;;;;;9.23;3.47;;;;;;;20.35;100.00;94068.53;4935818;28;20241;-74
2023/08/06 00:23:29;;;;;;;5.93;3.40;;;;;;;20.63;100.00;94062.38;4944169;28;20244;-74
2023/08/06 00:25:55;;;;;;;8.68;3.50;;;;;;;20.79;100.00;94085.88;4950112;28;21263;-75
2023/08/06 00:28:20;;;;;;;4.93;3.03;;;;;;;20.99;100.00;94086.72;4955569;28;20232;-74
2023/08/06 00:30:46;;;;;;;4.78;3.30;;;;;;;20.79;100.00;94088.53;4926925;28;20255;-74
2023/08/06 00:33:11;;;;;;;5.50;3.33;;;;;;;20.58;100.00;94073.88;4934707;28;20255;-73
2023/08/06 00:35:37;;;;;;;5.07;3.10;;;;;;;20.68;100.00;94067.66;4951704;28;20263;-73
2023/08/06 00:38:02;;;;;;;6.18;3.53;;;;;;;20.45;100.00;94063.88;4934337;28;20237;-73
2023/08/06 00:40:30;;;;;;;5.55;3.80;;;;;;;20.82;100.00;94064.00;4937089;28;20643;-74
2023/08/06 00:42:56;;;;;;;6.07;3.50;;;;;;;21.09;100.00;94049.38;4942199;28;20221;-74
2023/08/06 00:45:22;;;;;;;7.30;3.63;;;;;;;20.98;100.00;94056.66;4948783;28;20963;-74
2023/08/06 00:47:48;;;;;;;7.25;4.28;;;;;;;21.07;100.00;94054.97;4927809;28;20259;-73
2023/08/06 00:50:13;;;;;;;6.13;4.03;;;;;;;20.94;100.00;94044.22;4930255;28;20632;-73
2023/08/06 00:52:39;;;;;;;9.20;4.40;;;;;;;21.00;100.00;94049.19;4950351;28;20805;-74
2023/08/06 00:55:05;;;;;;;7.63;4.57;;;;;;;20.97;100.00;94048.97;4951309;28;20243;-76
2023/08/06 00:57:31;;;;;;;8.15;4.90;;;;;;;21.03;100.00;94056.59;4927369;28;20722;-73
2023/08/06 00:59:56;;;;;;;7.03;4.40;;;;;;;20.72;100.00;94048.19;4935772;28;20224;-73
2023/08/06 01:02:22;;;;;;;7.05;4.90;;;;;;;20.81;100.00;94032.38;4947424;28;20256;-74
2023/08/06 01:04:47;;;;;;;7.28;5.18;;;;;;;20.62;100.00;94039.50;4932007;28;20228;-74
2023/08/06 01:07:36;;;;;;;11.32;5.75;;;;;;;20.47;100.00;94010.44;4937349;28;20236;-74
2023/08/06 01:10:07;;;;;;;7.43;5.57;;;;;;;20.43;100.00;94004.09;4952132;28;20302;-73
2023/08/06 01:12:38;;;;;;;8.15;5.82;;;;;;;20.22;100.00;94008.00;4954504;28;20759;-73
2023/08/06 01:15:07;;;;;;;9.27;5.80;;;;;;;20.43;100.00;94009.41;4948636;28;20608;-74
2023/08/06 01:17:32;;;;;;;8.48;5.53;;;;;;;20.55;100.00;94013.28;4957114;28;20244;-73
2023/08/06 01:19:57;;;;;;;9.40;5.20;;;;;;;20.96;100.00;94020.78;4935593;28;20295;-72
2023/08/06 01:22:23;;;;;;;7.75;4.90;;;;;;;20.98;100.00;94016.75;4935766;28;20721;-72
2023/08/06 01:24:50;;;;;;;8.35;5.20;;;;;;;20.99;100.00;94002.38;4935346;28;20340;-73
2023/08/06 01:27:21;;;;;;;7.90;5.03;;;;;;;20.92;100.00;93993.16;4935704;28;20225;-72
2023/08/06 01:29:48;;;;;;;7.40;4.68;;;;;;;21.13;100.00;93989.97;4943523;28;20798;-73
2023/08/06 01:32:14;;;;;;;8.45;4.80;;;;;;;21.20;100.00;93998.41;4927538;28;20232;-71
2023/08/06 01:34:41;;;;;;;7.20;4.30;;;;;;;21.13;100.00;93994.50;4939329;28;20244;-73
2023/08/06 01:37:06;;;;;;;6.05;4.53;;;;;;;21.01;100.00;93988.78;4950974;28;20243;-73
2023/08/06 01:39:35;;;;;;;7.95;4.30;;;;;;;21.09;100.00;93993.50;4925947;28;20323;-71
2023/08/06 01:42:00;;;;;;;5.65;3.85;;;;;;;21.04;100.00;93986.31;4943857;28;20319;-72
2023/08/06 01:44:26;;;;;;;5.75;3.88;;;;;;;21.22;100.00;93988.25;4937179;28;20247;-70
2023/08/06 01:46:51;;;;;;;5.50;3.50;;;;;;;21.25;100.00;93990.34;4926267;28;20762;-72
2023/08/06 01:49:17;;;;;;;6.65;3.92;;;;;;;21.19;100.00;93988.00;4927361;28;20706;-71
2023/08/06 01:51:42;;;;;;;4.78;3.58;;;;;;;21.20;100.00;93986.94;4954142;28;20301;-71
2023/08/06 01:54:08;;;;;;;7.20;4.05;;;;;;;21.10;100.00;93985.22;4926426;28;20224;-72
2023/08/06 01:56:33;;;;;;;7.57;4.00;;;;;;;20.98;100.00;93984.03;4918986;28;20240;-72
2023/08/06 01:58:59;;;;;;;6.32;3.72;;;;;;;21.00;100.00;93987.97;4932714;28;20344;-70
2023/08/06 02:01:24;;;;;;;5.80;4.00;;;;;;;21.12;100.00;93985.72;4938488;28;20232;-71
2023/08/06 02:03:50;;;;;;;5.50;3.80;;;;;;;21.19;100.00;93982.69;4935030;28;20229;-72
2023/08/06 02:06:15;;;;;;;6.13;3.92;;;;;;;21.16;100.00;93968.09;4955242;28;20235;-71
2023/08/06 02:08:40;;;;;;;5.40;3.63;;;;;;;20.99;100.00;93981.09;5021847;28;20239;-72
2023/08/06 02:11:06;;;;;;;7.60;4.03;;;;;;;20.85;100.00;93966.88;4940655;28;20670;-71
2023/08/06 02:13:31;;;;;;;6.07;3.78;;;;;;;20.97;100.00;93958.50;4949801;28;20286;-72
2023/08/06 02:15:57;;;;;;;7.47;3.80;;;;;;;21.06;100.00;93962.13;4926225;28;20241;-72
2023/08/06 02:18:22;;;;;;;5.07;3.55;;;;;;;21.00;100.00;93976.53;4940805;28;20713;-72
2023/08/06 02:20:57;;;;;;;8.02;4.15;;;;;;;21.05;100.00;93981.81;4952642;28;20231;-71
2023/08/06 02:23:23;;;;;;;6.60;3.80;;;;;;;21.00;100.00;93990.63;4926707;28;20762;-71
2023/08/06 02:25:56;;;;;;;6.47;3.80;;;;;;;20.95;100.00;94004.00;4939196;28;20225;-72
2023/08/06 02:28:21;;;;;;;7.03;3.53;;;;;;;20.91;100.00;94013.66;4935638;28;20623;-71
2023/08/06 02:30:51;;;;;;;6.50;3.65;;;;;;;20.68;100.00;93998.50;4936504;28;20237;-72
2023/08/06 02:33:16;;;;;;;6.43;3.60;;;;;;;20.82;100.00;93988.75;4937558;28;20237;-71
2023/08/06 02:35:42;;;;;;;12.02;4.57;;;;;;;20.75;100.00;93983.75;4950548;28;20392;-73
2023/08/06 02:38:07;;;;;;;16.23;5.63;;;;;;;20.68;100.00;93998.50;4952145;28;20487;-73
2023/08/06 02:40:33;;;;;;;16.00;4.50;;;;;;;20.57;100.00;93997.03;4949268;28;20240;-73
2023/08/06 02:42:58;;;;;;;13.07;4.90;;;;;;;20.50;100.00;94023.16;4952703;28;20236;-70
2023/08/06 02:45:23;;;;;;;11.40;3.90;;;;;;;20.57;100.00;94036.91;4933249;28;20323;-71
2023/08/06 02:47:49;;;;;;;7.95;3.60;;;;;;;20.63;100.00;94033.13;4952821;28;20240;-73
2023/08/06 02:50:14;;;;;;;6.63;3.50;;;;;;;20.56;100.00;94016.72;4941935;28;20233;-72
2023/08/06 02:52:40;;;;;;;7.28;3.60;;;;;;;20.49;100.00;94002.97;4935849;28;20240;-73
2023/08/06 02:55:06;;;;;;;9.10;4.00;;;;;;;20.24;100.00;93990.75;4948541;28;20241;-73
2023/08/06 02:57:32;;;;;;;8.43;3.95;;;;;;;19.93;100.00;93970.84;4934682;28;20240;-72
2023/08/06 02:59:57;;;;;;;9.43;3.95;;;;;;;20.56;100.00;93982.16;4930193;28;20311;-73
2023/08/06 03:02:23;;;;;;;6.95;3.58;;;;;;;20.34;100.00;93965.94;4948798;28;20272;-72
2023/08/06 03:04:48;;;;;;;7.65;3.60;;;;;;;20.50;100.00;93968.13;4942746;28;20232;-71
2023/08/06 03:07:14;;;;;;;9.05;3.97;;;;;;;20.44;100.00;93957.84;4950549;28;20241;-73
2023/08/06 03:09:39;;;;;;;7.50;3.92;;;;;;;20.52;100.00;93970.50;4952441;28;20228;-73
2023/08/06 03:12:05;;;;;;;7.00;3.95;;;;;;;20.32;100.00;93933.53;4949374;28;20244;-73
2023/08/06 03:14:30;;;;;;;9.85;4.20;;;;;;;20.44;100.00;93918.78;4953249;28;20229;-73
2023/08/06 03:16:56;;;;;;;7.28;4.32;;;;;;;20.49;100.00;93928.56;4950829;28;20231;-74
2023/08/06 03:19:23;;;;;;;8.23;4.30;;;;;;;20.63;100.00;93953.38;4936160;28;20295;-75
2023/08/06 03:21:48;;;;;;;7.53;4.22;;;;;;;20.64;100.00;93938.97;4943245;28;20370;-73
2023/08/06 03:24:14;;;;;;;9.15;4.10;;;;;;;20.65;100.00;93916.63;4951093;28;20623;-73
2023/08/06 03:26:39;;;;;;;8.68;3.70;;;;;;;20.60;100.00;93908.72;4934014;28;20804;-72
2023/08/06 03:29:05;;;;;;;11.52;3.75;;;;;;;20.79;100.00;93944.91;4953428;28;20341;-73
2023/08/06 03:31:30;;;;;;;8.48;4.32;;;;;;;20.72;100.00;93970.25;4951580;28;20242;-73
2023/08/06 03:33:56;;;;;;;10.10;4.05;;;;;;;20.58;100.00;94003.94;4950776;28;20262;-73
2023/08/06 03:36:21;;;;;;;9.70;4.55;;;;;;;20.47;100.00;94010.44;4937981;28;20240;-72
2023/08/06 03:38:47;;;;;;;8.75;4.32;;;;;;;20.63;100.00;94011.88;4935341;28;20235;-72
2023/08/06 03:41:12;;;;;;;9.70;4.35;;;;;;;20.54;100.00;94010.91;4952576;28;20278;-72
2023/08/06 03:43:38;;;;;;;7.88;4.13;;;;;;;20.13;100.00;93990.00;4929693;28;20237;-72
2023/08/06 03:46:03;;;;;;;7.20;4.30;;;;;;;20.18;100.00;93975.88;4949816;28;20294;-73
2023/08/06 03:48:29;;;;;;;7.15;4.00;;;;;;;20.27;100.00;93989.41;4935223;28;20244;-73
2023/08/06 03:50:54;;;;;;;6.40;3.95;;;;;;;20.56;100.00;93987.47;4952699;28;20236;-73
2023/08/06 03:53:20;;;;;;;6.75;3.70;;;;;;;20.74;100.00;93976.88;4950296;28;20232;-72
2023/08/06 03:55:45;;;;;;;6.63;3.95;;;;;;;20.70;100.00;93980.41;4932296;28;20308;-73
2023/08/06 03:58:11;;;;;;;8.10;3.90;;;;;;;20.83;100.00;93993.00;4932856;28;20240;-71
2023/08/06 04:00:36;;;;;;;5.80;3.50;;;;;;;20.79;100.00;93991.97;4947015;28;20224;-73
2023/08/06 04:03:02;;;;;;;5.35;3.50;;;;;;;20.89;100.00;94002.50;4937942;28;20255;-73
2023/08/06 04:05:27;;;;;;;6.50;3.65;;;;;;;20.99;100.00;94009.56;4931690;28;20320;-72
2023/08/06 04:07:53;;;;;;;5.43;3.70;;;;;;;20.80;100.00;94020.94;4943821;28;20236;-72
2023/08/06 04:10:18;;;;;;;9.70;4.07;;;;;;;20.80;100.00;94020.94;4948852;28;20239;-72
2023/08/06 04:12:44;;;;;;;6.18;3.90;;;;;;;20.99;100.00;94031.66;4917387;28;20233;-71
2023/08/06 04:15:09;;;;;;;5.95;3.58;;;;;;;20.79;100.00;94026.56;4936071;28;20236;-71
2023/08/06 04:17:35;;;;;;;6.57;4.00;;;;;;;20.92;100.00;94019.75;4918907;28;20267;-71
2023/08/06 04:20:02;;;;;;;5.82;3.90;;;;;;;20.83;100.00;94014.25;4926841;28;20241;-72
2023/08/06 04:22:27;;;;;;;6.50;4.00;;;;;;;20.69;100.00;94000.06;4949887;28;20244;-72
2023/08/06 04:24:53;;;;;;;5.53;3.75;;;;;;;20.55;100.00;93996.53;4934585;28;20242;-72
2023/08/06 04:27:19;;;;;;;5.57;4.13;;;;;;;20.54;100.00;93987.75;4935865;28;20248;-71
2023/08/06 04:29:44;;;;;;;6.68;4.05;;;;;;;20.67;100.00;93987.06;4920404;28;20718;-72
2023/08/06 04:32:10;;;;;;;7.38;3.88;;;;;;;20.94;100.00;93986.47;4935627;28;20655;-72
2023/08/06 04:34:36;;;;;;;4.75;3.70;;;;;;;21.04;100.00;93991.63;4919068;28;20616;-72
2023/08/06 04:37:01;;;;;;;6.13;3.80;;;;;;;20.95;100.00;93990.72;4952738;28;20378;-71
2023/08/06 04:39:27;;;;;;;6.22;4.00;;;;;;;21.05;100.00;93968.53;4954719;28;20266;-71
2023/08/06 04:41:52;;;;;;;5.68;3.60;;;;;;;21.06;100.00;93967.47;4947997;28;20783;-71
2023/08/06 04:44:18;;;;;;;7.60;3.97;;;;;;;20.96;100.00;93963.03;4930575;28;20235;-71
2023/08/06 04:46:43;;;;;;;6.95;4.07;;;;;;;21.08;100.00;93967.94;4944796;28;20236;-72
2023/08/06 04:49:09;;;;;;;5.03;3.55;;;;;;;20.80;100.00;93951.03;4940050;28;20261;-72
2023/08/06 04:51:34;;;;;;;8.38;4.30;;;;;;;20.62;100.00;93939.28;4947918;28;20608;-73
2023/08/06 04:54:00;;;;;;;4.80;3.80;;;;;;;20.74;100.00;93928.22;4944194;28;20232;-71
2023/08/06 04:56:25;;;;;;;5.20;3.95;;;;;;;20.86;100.00;93920.59;4936849;28;20236;-72
2023/08/06 04:58:51;;;;;;;6.53;4.13;;;;;;;20.92;100.00;93918.66;4934126;28;20228;-71
2023/08/06 05:01:16;;;;;;;7.38;4.07;;;;;;;21.03;100.00;93925.41;4937061;28;20233;-72
2023/08/06 05:03:42;;;;;;;5.95;3.88;;;;;;;20.96;100.00;93917.81;4943169;28;20240;-72
2023/08/06 05:06:07;;;;;;;6.57;4.38;;;;;;;20.94;100.00;93927.16;4940697;28;20236;-71
2023/08/06 05:08:33;;;;;;;9.48;4.30;;;;;;;20.97;100.00;93926.59;4939314;28;20229;-71
2023/08/06 05:10:58;;;;;;;5.15;3.78;;;;;;;20.96;100.00;93931.09;4933971;28;20769;-72
2023/08/06 05:13:25;;;;;;;5.03;4.00;;;;;;;20.99;100.00;93925.22;4936333;28;20244;-71
2023/08/06 05:15:50;;;;;;;4.57;3.65;;;;;;;21.00;100.00;93933.97;4937707;28;20241;-71
2023/08/06 05:18:16;;;;;;;5.78;3.55;;;;;;;21.20;100.00;93944.38;4931638;28;20244;-71
2023/08/06 05:20:42;;;;;;;6.75;3.67;;;;;;;21.11;100.00;93933.56;4933005;28;20236;-73
2023/08/06 05:23:07;;;;;;;5.75;3.50;;;;;;;21.32;100.00;93945.50;4921281;28;20648;-72
2023/08/06 05:25:36;;;;;;;7.32;4.10;;;;;;;21.65;100.00;93953.50;4921577;28;20235;-72
2023/08/06 05:28:02;;;;;;;7.28;3.83;;;;;;;22.36;100.00;93951.19;4923431;28;20319;-72
2023/08/06 05:30:28;;;;;;;5.93;3.97;;;;;;;21.89;100.00;93948.88;4939517;28;20289;-72
2023/08/06 05:32:53;;;;;;;8.65;4.50;;;;;;;21.25;100.00;93946.94;4928724;28;20316;-72
2023/08/06 05:35:19;;;;;;;7.07;5.10;;;;;;;21.31;100.00;93938.59;4934058;28;20923;-72
2023/08/06 05:37:45;;;;;;;6.03;4.72;;;;;;;21.96;100.00;93936.75;4918783;28;20267;-71
2023/08/06 05:40:11;;;;;;;7.30;5.28;;;;;;;22.12;100.00;93942.59;4920594;28;20245;-72
2023/08/06 05:42:36;;;;;;;8.57;6.18;;;;;;;21.83;100.00;93929.47;4947993;28;20229;-73
2023/08/06 05:45:02;;;;;;;10.10;6.10;;;;;;;21.87;100.00;93919.88;4959883;28;20247;-72
2023/08/06 05:47:27;;;;;;;9.13;6.05;;;;;;;21.79;100.00;93917.03;4915482;28;20804;-72
2023/08/06 05:49:53;;;;;;;8.30;5.60;;;;;;;21.79;100.00;93917.03;4946731;28;20228;-71
2023/08/06 05:52:18;;;;;;;7.90;5.63;;;;;;;21.87;100.00;93929.72;4937014;28;20255;-71
2023/08/06 05:54:44;;;;;;;8.07;4.93;;;;;;;21.81;100.00;93936.19;4943713;28;20770;-71
2023/08/06 05:57:09;;;;;;;7.03;4.88;;;;;;;21.75;100.00;93935.50;4920799;28;20239;-71
2023/08/06 05:59:35;;;;;;;6.88;5.00;;;;;;;21.82;100.00;93935.91;4956427;28;20232;-71
2023/08/06 06:02:00;;;;;;;7.78;4.30;;;;;;;21.72;100.00;93935.28;4939277;28;20297;-71
2023/08/06 06:04:26;;;;;;;8.20;4.55;;;;;;;21.52;100.00;93946.28;4932791;28;20672;-71
2023/08/06 06:06:51;;;;;;;4.85;3.80;;;;;;;21.52;100.00;93946.28;4933367;28;20247;-71
2023/08/06 06:09:17;;;;;;;5.75;3.58;;;;;;;21.73;100.00;93952.84;4930857;28;20243;-71
2023/08/06 06:11:43;;;;;;;5.75;3.35;;;;;;;21.85;100.00;93953.22;4918085;28;20256;-70
2023/08/06 06:14:08;;;;;;;4.60;3.20;;;;;;;21.96;100.00;93950.06;4935402;28;20270;-70
2023/08/06 06:16:34;;;;;;;3.80;2.95;;;;;;;21.79;100.00;93957.78;4931683;28;20268;-74
2023/08/06 06:18:59;;;;;;;5.65;3.00;;;;;;;21.74;99.91;93962.41;4951707;28;20240;-71
2023/08/06 06:21:25;;;;;;;3.35;2.90;;;;;;;21.55;97.94;93966.97;4936686;28;20299;-72
2023/08/06 06:23:53;;;;;;;4.70;2.50;;;;;;;21.62;99.15;93970.06;4934093;28;20224;-71
2023/08/06 06:26:19;;;;;;;4.65;2.58;;;;;;;21.41;100.00;93980.25;4933123;28;20259;-71
2023/08/06 06:28:44;;;;;;;3.50;2.90;;;;;;;21.52;100.00;93987.00;4943316;28;20225;-71
2023/08/06 06:31:10;;;;;;;3.50;2.90;;;;;;;21.43;99.51;93986.88;4931679;28;20232;-72
2023/08/06 06:33:36;;;;;;;5.05;3.00;;;;;;;21.38;100.00;93994.94;4921108;28;20730;-72
2023/08/06 06:36:03;;;;;;;5.53;2.65;;;;;;;21.45;99.77;93992.69;4948427;28;20244;-70
2023/08/06 06:38:29;;;;;;;3.80;2.60;;;;;;;21.43;98.13;94002.84;4936694;28;20233;-80
2023/08/06 06:40:55;;;;;;;3.35;2.70;;;;;;;21.57;98.47;94002.09;4930801;28;20232;-78
2023/08/06 06:43:21;;;;;;;3.20;2.60;;;;;;;21.64;97.78;94005.97;4928010;28;20241;-80
2023/08/06 06:45:46;;;;;;;4.97;2.50;;;;;;;21.58;95.90;94006.34;4935619;28;20235;-77
2023/08/06 06:48:12;;;;;;;5.43;2.53;;;;;;;21.74;95.52;94010.34;4923038;28;20666;-78
2023/08/06 06:50:39;;;;;;;3.90;2.50;;;;;;;21.90;94.80;94028.50;4937297;28;20966;-79
2023/08/06 06:53:04;;;;;;;3.05;2.55;;;;;;;21.74;93.60;94031.66;4953813;28;20620;-79
2023/08/06 06:55:30;;;;;;;6.18;2.85;;;;;;;21.72;93.78;94028.50;4952841;28;20260;-79
2023/08/06 06:57:55;;;;;;;6.72;2.80;;;;;;;21.70;93.28;94028.00;4952221;28;20266;-77
2023/08/06 07:00:21;;;;;;;3.45;2.97;;;;;;;21.67;93.95;94037.38;4954822;28;20220;-79
2023/08/06 07:02:46;;;;;;;4.18;2.88;;;;;;;21.53;93.34;94036.50;4955745;28;20287;-78
2023/08/06 07:05:12;;;;;;;3.38;2.80;;;;;;;21.65;93.37;94033.41;4937771;28;20239;-78
2023/08/06 07:07:37;;;;;;;5.68;2.72;;;;;;;21.65;93.23;94038.75;4937222;28;20276;-79
2023/08/06 07:10:03;;;;;;;3.88;2.90;;;;;;;21.80;92.49;94043.84;4925681;28;20600;-79
2023/08/06 07:12:28;;;;;;;6.07;2.97;;;;;;;22.01;92.59;94048.59;4926136;28;20671;-78
2023/08/06 07:14:54;;;;;;;5.03;2.90;;;;;;;22.03;90.98;94045.63;4938512;28;20667;-78
2023/08/06 07:17:19;;;;;;;3.38;2.67;;;;;;;22.11;90.37;94060.97;4928563;28;20263;-77
2023/08/06 07:19:45;;;;;;;4.90;2.70;;;;;;;22.16;89.55;94057.41;4936810;28;20237;-78
2023/08/06 07:22:10;;;;;;;6.18;3.10;;;;;;;22.13;88.95;94056.13;4939302;28;20247;-78
2023/08/06 07:24:36;;;;;;;5.88;2.90;;;;;;;22.19;89.50;94051.50;4953915;28;20228;-81
2023/08/06 07:27:01;;;;;;;3.85;2.95;;;;;;;22.22;89.48;94059.69;4952914;28;20236;-78
2023/08/06 07:29:27;;;;;;;5.38;3.20;;;;;;;22.22;85.88;94059.69;4952715;28;20289;-78
2023/08/06 07:31:52;;;;;;;4.47;3.30;;;;;;;22.27;85.48;94061.50;4934658;28;20229;-79
2023/08/06 07:34:18;;;;;;;5.03;3.58;;;;;;;22.21;85.16;94063.44;4924402;28;20240;-79
2023/08/06 07:36:45;;;;;;;5.22;3.50;;;;;;;22.08;85.60;94066.88;4934662;28;20259;-78
2023/08/06 07:39:10;;;;;;;5.55;3.40;;;;;;;22.21;85.65;94058.09;4922494;28;20773;-79
2023/08/06 07:41:36;;;;;;;5.35;3.30;;;;;;;22.33;83.58;94068.34;4939249;28;20240;-83
2023/08/06 07:44:01;;;;;;;5.18;2.92;;;;;;;22.42;83.27;94056.69;4945587;28;20657;-78
2023/08/06 07:46:27;;;;;;;3.70;3.28;;;;;;;22.56;83.51;94054.03;4936161;28;20247;-79
2023/08/06 07:48:52;;;;;;;4.30;3.15;;;;;;;22.68;81.79;94057.06;4938150;28;20729;-79
2023/08/06 07:51:18;;;;;;;5.97;3.33;;;;;;;22.70;82.86;94055.69;4936286;28;20236;-79
2023/08/06 07:53:44;;;;;;;5.53;3.60;;;;;;;22.81;82.26;94056.25;4949619;28;20381;-80
2023/08/06 07:56:09;;;;;;;3.97;3.08;;;;;;;22.89;82.21;94057.44;4952869;28;20235;-79
2023/08/06 07:58:35;;;;;;;4.05;3.40;;;;;;;23.08;82.22;94055.47;4951629;28;20234;-81
2023/08/06 08:01:00;;;;;;;3.55;2.75;;;;;;;22.92;84.24;94054.19;4920806;28;20305;-78
2023/08/06 08:03:26;;;;;;;3.67;2.85;;;;;;;22.75;83.40;94060.91;4939489;28;20290;-77
2023/08/06 08:05:56;;;;;;;4.05;2.92;;;;;;;22.65;84.67;94055.75;4949254;28;20297;-79
2023/08/06 08:08:21;;;;;;;4.72;2.97;;;;;;;22.85;84.51;94045.78;4953161;28;20244;-79
2023/08/06 08:10:47;;;;;;;5.18;3.15;;;;;;;22.74;84.71;94058.53;4967387;28;20229;-79
2023/08/06 08:13:12;;;;;;;4.70;3.08;;;;;;;;;;4924722;28;20613;-80
2023/08/06 08:15:37;;;;;;;4.50;3.10;;;;;;;22.76;83.60;94043.00;4946206;28;20329;-79
2023/08/06 08:18:03;;;;;;;4.68;3.00;;;;;;;22.90;81.10;94049.16;4940271;28;20241;-81
2023/08/06 08:20:31;;;;;;;3.95;3.08;;;;;;;22.94;83.90;94046.69;4934420;28;20626;-77
2023/08/06 08:22:58;;;;;;;5.53;3.30;;;;;;;23.02;82.43;94052.13;4946537;28;20225;-79
2023/08/06 08:25:24;;;;;;;5.68;3.38;;;;;;;23.20;82.17;94047.75;4915390;28;20798;-78
2023/08/06 08:27:49;;;;;;;6.80;3.50;;;;;;;23.24;81.92;94046.84;4934825;28;20229;-80
2023/08/06 08:30:15;;;;;;;4.28;3.30;;;;;;;23.09;80.85;94049.03;4936631;28;20237;-78
2023/08/06 08:32:40;;;;;;;5.15;3.30;;;;;;;23.25;82.21;94047.63;4919780;28;20315;-78
2023/08/06 08:35:06;;;;;;;6.93;3.60;;;;;;;23.45;79.95;94047.25;4938509;28;20225;-78
2023/08/06 08:37:31;;;;;;;5.13;3.72;;;;;;;23.50;81.06;94051.69;4948257;28;20229;-79
2023/08/06 08:39:57;;;;;;;3.85;3.20;;;;;;;23.67;79.44;94049.16;4932413;28;20229;-78
2023/08/06 08:42:22;;;;;;;4.55;3.45;;;;;;;23.82;79.00;94043.47;4922590;28;20228;-80
2023/08/06 08:44:48;;;;;;;5.60;3.60;;;;;;;24.06;78.32;94043.94;4934426;28;20317;-82
2023/08/06 08:47:15;;;;;;;7.63;3.50;;;;;;;24.16;77.10;94048.28;4949735;28;20232;-80
2023/08/06 08:49:41;;;;;;;3.80;3.38;;;;;;;24.16;76.77;94040.28;4933182;28;20241;-79
2023/08/06 08:52:06;;;;;;;4.40;3.42;;;;;;;24.21;75.93;94032.13;4952745;28;20263;-79
2023/08/06 08:54:32;;;;;;;5.72;3.45;;;;;;;24.24;76.29;94028.84;4933968;28;20660;-80
2023/08/06 08:56:58;;;;;;;5.70;3.30;;;;;;;24.00;76.14;94035.25;4938894;28;20290;-80
2023/08/06 08:59:23;;;;;;;4.15;3.22;;;;;;;24.05;75.75;94043.16;4924822;28;20231;-79
2023/08/06 09:01:51;;;;;;;6.50;3.30;;;;;;;24.14;74.78;94026.41;4944842;28;20239;-82
2023/08/06 09:04:17;;;;;;;4.40;3.25;;;;;;;24.25;76.28;94031.19;4934985;28;20715;-80
2023/08/06 09:06:42;;;;;;;5.15;3.67;;;;;;;24.42;74.10;94027.84;4941073;28;20259;-78
2023/08/06 09:09:10;;;;;;;3.70;3.28;;;;;;;24.30;75.73;94027.63;4953932;28;20229;-81
2023/08/06 09:11:40;;;;;;;8.23;3.70;;;;;;;24.17;75.58;94018.56;4928283;28;20236;-82
2023/08/06 09:14:07;;;;;;;4.88;3.38;;;;;;;24.45;75.12;94019.19;4929848;28;20286;-78
2023/08/06 09:16:34;;;;;;;4.80;3.35;;;;;;;24.61;74.84;94023.84;4920382;28;20256;-78
2023/08/06 09:19:09;;;;;;;6.72;3.70;;;;;;;24.73;75.03;94012.56;4954647;28;20292;-79
2023/08/06 09:21:39;;;;;;;3.97;3.05;;;;;;;24.59;73.52;94011.88;4928321;28;20248;-78
2023/08/06 09:24:09;;;;;;;5.50;3.60;;;;;;;24.62;73.44;94006.66;4936785;28;20235;-79
2023/08/06 09:26:34;;;;;;;4.57;3.50;;;;;;;24.88;73.59;94004.13;4937726;28;20247;-80
2023/08/06 09:29:00;;;;;;;8.25;3.58;;;;;;;25.08;72.43;94005.44;4964070;28;20232;-80
2023/08/06 09:31:32;;;;;;;3.60;3.30;;;;;;;24.56;72.68;94007.13;4943108;28;20244;-80
2023/08/06 09:33:59;;;;;;;6.60;3.10;;;;;;;24.82;69.62;94001.91;4948681;28;20260;-79
2023/08/06 09:36:25;;;;;;;3.50;3.13;;;;;;;24.99;69.67;93999.28;4942800;28;20327;-79
2023/08/06 09:38:50;;;;;;;4.60;3.33;;;;;;;24.92;70.87;93993.59;4939822;28;20933;-80
2023/08/06 09:41:27;;;;;;;3.58;3.10;;;;;;;25.15;72.24;93989.72;4920388;28;20251;-78
2023/08/06 09:43:52;;;;;;;5.07;3.20;;;;;;;25.45;72.49;93988.03;4941300;28;20252;-79
2023/08/06 09:46:18;;;;;;;3.92;2.92;;;;;;;25.46;69.14;93986.94;4947202;28;20247;-80
2023/08/06 09:48:46;;;;;;;4.82;3.10;;;;;;;25.24;68.36;93998.56;4964694;28;20220;-80
2023/08/06 09:51:12;;;;;;;4.70;3.00;;;;;;;25.39;68.87;93995.41;4939433;28;20245;-80
2023/08/06 09:53:38;;;;;;;6.60;2.85;;;;;;;25.24;69.04;94004.66;4938839;28;20240;-81
2023/08/06 09:56:04;;;;;;;4.80;2.90;;;;;;;24.98;68.97;93995.78;4935715;28;20258;-79
2023/08/06 09:58:31;;;;;;;3.75;2.90;;;;;;;24.92;68.85;93999.72;4930662;28;20303;-80
2023/08/06 10:00:56;;;;;;;3.55;2.95;;;;;;;24.90;68.44;93995.78;4926622;28;20239;-79
2023/08/06 10:03:22;;;;;;;4.40;3.10;;;;;;;24.92;69.27;93994.38;4952556;28;20289;-81
2023/08/06 10:05:47;;;;;;;3.78;2.90;;;;;;;24.77;67.04;93997.47;4936218;28;20221;-78
2023/08/06 10:08:13;;;;;;;4.72;3.10;;;;;;;24.71;68.75;94001.38;4918046;28;20242;-79
2023/08/06 10:10:38;;;;;;;3.67;2.80;;;;;;;24.67;68.41;94003.84;4934661;28;20240;-79
2023/08/06 10:13:04;;;;;;;5.05;2.80;;;;;;;24.54;66.50;94012.00;4959794;28;20236;-86
2023/08/06 10:15:31;;;;;;;5.60;2.40;;;;;;;24.52;66.80;94008.84;4926483;28;20766;-81
2023/08/06 10:17:57;;;;;;;3.45;2.80;;;;;;;24.51;66.73;94005.38;4921563;28;20909;-80
2023/08/06 10:20:22;;;;;;;4.97;2.78;;;;;;;24.45;66.84;94001.28;4936916;28;20736;-80
2023/08/06 10:23:04;;;;;;;6.57;2.80;;;;;;;24.54;67.58;93995.94;4951554;28;20224;-80
2023/08/06 10:25:33;;;;;;;3.33;2.55;;;;;;;25.00;65.58;94003.53;4938442;28;20236;-78
2023/08/06 10:27:59;;;;;;;2.90;2.60;;;;;;;25.02;64.84;94001.34;5019777;28;20239;-80
2023/08/06 10:30:28;;;;;;;5.03;2.83;;;;;;;25.00;67.78;93992.81;4932001;29;20611;-82
2023/08/06 10:32:56;;;;;;;3.28;2.55;;;;;;;24.90;66.53;93999.25;4926898;28;20336;-79
2023/08/06 10:35:34;;;;;;;3.35;2.58;;;;;;;24.79;67.14;94013.25;4956975;28;20336;-78
2023/08/06 10:38:03;;;;;;;5.38;3.05;;;;;;;24.84;66.97;94021.13;4994189;28;20241;-79
2023/08/06 10:40:30;;;;;;;3.67;2.83;;;;;;;24.94;66.78;94015.47;4980484;28;20282;-79
2023/08/06 10:42:58;;;;;;;4.85;2.60;;;;;;;24.92;67.49;94023.81;4930965;28;20669;-79
2023/08/06 10:45:28;;;;;;;3.50;2.90;;;;;;;24.69;68.50;94031.09;4957812;28;20232;-77
2023/08/06 10:47:54;;;;;;;3.65;2.60;;;;;;;24.59;68.16;94033.28;4947592;28;20240;-78
2023/08/06 10:50:20;;;;;;;3.50;2.70;;;;;;;24.53;67.67;94034.50;4953751;28;20260;-79
2023/08/06 10:52:46;;;;;;;5.32;3.10;;;;;;;24.55;67.73;94045.69;4938725;28;20285;-78
2023/08/06 10:55:11;;;;;;;5.07;2.90;;;;;;;24.51;67.24;94045.50;4944500;28;20236;-77
2023/08/06 10:57:37;;;;;;;5.72;2.90;;;;;;;24.44;67.06;94045.16;4938223;28;20241;-80
2023/08/06 11:00:04;;;;;;;3.90;3.10;;;;;;;24.46;67.67;94039.50;4958113;28;20244;-79
2023/08/06 11:02:33;;;;;;;4.18;2.95;;;;;;;24.41;67.83;94042.31;4928269;28;20232;-78
2023/08/06 11:04:59;;;;;;;3.30;2.78;;;;;;;24.37;68.33;94049.38;4944800;28;20236;-80
2023/08/06 11:07:28;;;;;;;3.10;2.72;;;;;;;24.35;68.00;94052.34;4964392;28;20297;-80
2023/08/06 11:10:01;;;;;;;3.85;3.13;;;;;;;24.42;67.47;94054.59;4957516;28;20239;-78
2023/08/06 11:12:27;;;;;;;6.05;3.10;;;;;;;24.44;67.80;94050.50;4952844;28;20240;-80
2023/08/06 11:14:53;;;;;;;5.32;3.35;;;;;;;24.54;68.17;94044.91;4953181;28;20231;-80
2023/08/06 11:17:18;;;;;;;5.18;3.70;;;;;;;24.55;67.41;94057.16;4970004;28;20236;-78
2023/08/06 11:19:44;;;;;;;5.30;4.00;;;;;;;24.51;68.59;94066.13;4953443;28;20263;-79
2023/08/06 11:22:09;;;;;;;6.30;3.80;;;;;;;24.31;68.30;94069.31;4949477;28;20241;-77
2023/08/06 11:24:35;;;;;;;6.00;3.78;;;;;;;24.20;69.24;94076.00;4945518;28;20236;-78